• Join FlightAware (Why Join?)
  • Login
  • US Flag 
04:34AM EDT


 

Airport Tracker/Info


-or-


 

Live Flight TrackerFlight Track Log ✈ AWI3778 ✈ 17-Aug-2013 ✈ KDCA - KJAX

Flight Track Log - Related Links

Times and Time Zones

All times are in EDT time to prevent confusion due to time zone crossing. See the AWI3778 flight status page for this flight to view local times or setup timezone preferences in your user account.

Time Position Orientation Groundspeed Altitude Reporting Facility
EDT Latitude Longitude Course Direction KTS MPH feet Rate Location/Type
12:49PM 38.8833 -77.0500 169° South 183 211 1,300  Level Potomac TRACON
12:50PM 38.9167 -77.1000 311° West 206 237 3,700 2,100 Climbing Potomac TRACON
12:51PM 38.9906 -77.1806 320° Northwest 243 280 6,600 1,980 Climbing Washington Center
12:52PM 38.4844 -76.7069 171° South  Level FlightAware Approximate
12:52PM 39.0414 -77.1042 49° Northeast 188 216 9,300  Level Washington Center
12:53PM 38.3700 -76.7000 180° South  Level FlightAware Approximate
12:53PM 38.9925 -77.0178 126° Southeast 144 166 11,300  Level Washington Center
12:54PM 38.2685 -76.6796 169° South  Level FlightAware Approximate
12:54PM 38.9117 -76.9683 155° Southeast 238 274 12,000  Level Washington Center
12:55PM 38.8250 -76.9081 152° Southeast 308 354 13,400 1,380 Climbing Washington Center
12:56PM 38.7358 -76.8478 152° Southeast 331 381 14,800 1,320 Climbing Washington Center
12:57PM 38.6447 -76.7878 153° Southeast 353 406 16,100 1,140 Climbing Washington Center
12:58PM 38.5472 -76.7544 165° South 358 412 17,100 900 Climbing Washington Center
12:59PM 38.4428 -76.7500 178° South 368 423 17,900 900 Climbing Washington Center
01:00PM 38.3386 -76.7458 178° South 373 429 18,900 780 Climbing Washington Center
01:01PM 38.2344 -76.7389 177° South 373 429 19,600 660 Climbing Washington Center
01:02PM 38.1281 -76.7372 179° South 379 436 20,300 780 Climbing Washington Center
01:03PM 38.0197 -76.7303 177° South 385 443 21,200 780 Climbing Washington Center
01:04PM 37.9133 -76.7289 179° South 385 443 21,900 480 Climbing Washington Center
01:05PM 37.8050 -76.7219 177° South 385 443 22,200 480 Climbing Washington Center
01:06PM 37.6967 -76.7178 178° South 385 443 22,900 540 Climbing Washington Center
01:07PM 37.5861 -76.7133 178° South 390 449 23,300 420 Climbing Washington Center
01:08PM 37.4736 -76.7092 178° South 395 455 23,800 360 Climbing Washington Center
01:09PM 37.3667 -76.7417 194° South 400 460 24,100 300 Climbing Washington Center
01:10PM 37.2600 -76.7869 199° South 400 460 24,400 120 Climbing Washington Center
01:11PM 37.1553 -76.8297 198° South 400 460 24,400  Level Washington Center
01:12PM 37.0525 -76.8750 199° South 400 460 24,500 60 Climbing Washington Center
01:13PM 36.9500 -76.9147 197° South 400 460 24,600 180 Climbing Washington Center
01:14PM 36.8472 -76.9572 198° South 400 460 24,900 360 Climbing Washington Center
01:15PM 36.7467 -76.9994 199° South 394 453 25,400 480 Climbing Washington Center
01:16PM 36.6603 -77.0625 210° Southwest 375 432 25,900 600 Climbing Washington Center
01:17PM 36.5781 -77.1414 218° Southwest 375 432 26,600 660 Climbing Washington Center
01:18PM 36.4978 -77.2172 217° Southwest 375 432 27,300 840 Climbing Washington Center
01:19PM 36.4194 -77.2903 217° Southwest 369 425 28,400 840 Climbing Washington Center
01:20PM 36.3433 -77.3608 217° Southwest 359 413 29,100 600 Climbing Washington Center
01:21PM 36.2672 -77.4339 218° Southwest 354 407 29,700 600 Climbing Washington Center
01:22PM 36.1867 -77.5119 218° Southwest 343 395 30,300 540 Climbing Washington Center
01:23PM 36.1083 -77.5819 216° Southwest 343 395 30,900 540 Climbing Washington Center
01:24PM 36.0342 -77.6519 217° Southwest 348 400 31,400 480 Climbing Washington Center
01:25PM 35.9556 -77.7192 215° Southwest 348 400 31,900 240 Climbing Washington Center
01:26PM 35.8753 -77.7836 213° Southwest 348 400 32,000  Climbing Washington Center
01:27PM 35.7906 -77.8506 213° Southwest 359 413 32,000  Level Washington Center
01:28PM 35.7036 -77.9197 213° Southwest 365 420 32,000  Level Washington Center
01:29PM 35.6169 -77.9836 211° Southwest 376 433 32,000  Level Washington Center
01:30PM 35.5300 -78.0525 213° Southwest 376 433 32,000  Level Washington Center
01:31PM 35.4408 -78.1211 212° Southwest 376 433 32,000  Level Washington Center
01:32PM 35.3622 -78.1797 211° Southwest 376 433 32,000  Level Washington Center
01:33PM 35.2731 -78.2506 213° Southwest 381 438 32,000  Level Washington Center
01:34PM 35.1861 -78.3214 214° Southwest 381 438 32,000  Level Washington Center
01:35PM 35.0947 -78.3894 211° Southwest 381 438 32,000  Level Washington Center
01:36PM 35.0056 -78.4597 213° Southwest 381 438 32,000  Level Washington Center
01:37PM 34.9181 -78.5303 213° Southwest 381 438 32,000  Level Washington Center
01:38PM 34.8269 -78.5953 210° Southwest 381 438 32,000  Level Washington Center
01:41PM 34.5872 -78.7794 212° Southwest 387 445 32,000  Level Jacksonville Center
01:42PM 34.4975 -78.8467 212° Southwest 387 445 32,000  Level Jacksonville Center
01:43PM 34.4081 -78.9214 215° Southwest 392 451 32,000  Level Jacksonville Center
01:44PM 34.3164 -78.9908 212° Southwest 392 451 32,000  Level Jacksonville Center
01:45PM 34.2247 -79.0603 212° Southwest 387 445 32,000 -240 Level Jacksonville Center
01:46PM 34.1289 -79.1322 212° Southwest 397 457 31,600 -480 Descending Jacksonville Center
01:47PM 34.0392 -79.2086 215° Southwest 402 463 31,100 -540 Descending Jacksonville Center
01:48PM 33.9564 -79.2997 222° Southwest 407 468 30,600 -540 Descending Jacksonville Center
01:49PM 33.8714 -79.3908 222° Southwest 407 468 30,100 -300 Descending Jacksonville Center
01:50PM 33.7922 -79.4789 223° Southwest 407 468 30,000 -60 Descending Jacksonville Center
01:51PM 33.7114 -79.5694 223° Southwest 401 461 30,000  Level Jacksonville Center
01:52PM 33.6261 -79.6650 223° Southwest 407 468 30,000  Level Jacksonville Center
01:53PM 33.5450 -79.7578 224° Southwest 412 474 30,000  Level Jacksonville Center
01:54PM 33.4617 -79.8528 224° Southwest 412 474 30,000  Level Jacksonville Center
01:55PM 33.3825 -79.9475 225° Southwest 412 474 30,000  Level Jacksonville Center
01:56PM 33.3014 -80.0419 224° Southwest 412 474 30,000  Level Jacksonville Center
01:57PM 33.2219 -80.1364 225° Southwest 412 474 30,000  Level Jacksonville Center
01:58PM 33.1356 -80.1986 211° Southwest 418 481 30,000  Level Jacksonville Center
01:59PM 33.0347 -80.2611 207° Southwest 413 475 30,000  Level Jacksonville Center
02:00PM 32.9275 -80.3236 206° Southwest 408 470 30,000  Level Jacksonville Center
02:01PM 32.8286 -80.3858 208° Southwest 414 476 30,000  Level Jacksonville Center
02:02PM 32.7294 -80.4453 207° Southwest 407 468 30,000  Level Jacksonville Center
02:03PM 32.6306 -80.5072 208° Southwest 402 463 30,000  Level Jacksonville Center
02:04PM 32.5292 -80.5667 206° Southwest 402 463 30,000  Level Jacksonville Center
02:05PM 32.4303 -80.6283 208° Southwest 402 463 30,000 -180 Level Jacksonville Center
02:06PM 32.3289 -80.6872 206° Southwest 402 463 29,700 -900 Descending Jacksonville Center
02:07PM 32.2208 -80.7192 194° South 402 463 28,300 -1,500 Descending Jacksonville Center
02:08PM 32.1067 -80.7514 193° South 395 455 26,800 -1,500 Descending Jacksonville Center
02:09PM 32.0089 -80.7783 193° South 395 455 25,400 -1,500 Descending Jacksonville Center
02:10PM 31.8906 -80.8128 194° South 395 455 23,900 -1,440 Descending Jacksonville Center
02:11PM 31.7908 -80.8492 197° South 385 443 22,600 -1,320 Descending Jacksonville Center
02:12PM 31.7100 -80.8803 198° South 358 412 21,300 -1,500 Descending Jacksonville Center
02:13PM 31.6042 -80.9192 197° South 358 412 19,700 -1,500 Descending Jacksonville Center
02:14PM 31.5297 -80.9669 209° Southwest 358 412 18,400 -1,440 Descending Jacksonville Center
02:15PM 31.4536 -81.0369 218° Southwest 329 379 16,900 -1,440 Descending Jacksonville Center
02:16PM 31.3833 -81.0992 217° Southwest 324 373 15,600 -1,320 Descending Jacksonville Center
02:17PM 31.3239 -81.1658 224° Southwest 324 373 14,300 -1,440 Descending Jacksonville Center
02:18PM 31.2600 -81.2278 220° Southwest 324 373 12,800 -1,680 Descending Jacksonville Center
02:19PM 31.1769 -81.2803 208° Southwest 297 342 10,900 -1,500 Descending Jacksonville Center
02:20PM 31.1150 -81.3178 207° Southwest 300 345 9,900 -540 Descending Jacksonville Center
02:21PM 31.0425 -81.3625 208° Southwest 290 334 9,900  Level Jacksonville Center
02:22PM 30.9533 -81.4150 207° Southwest 304 350 10,000 -540 Climbing Jacksonville Center
02:23PM 30.8972 -81.4472 206° Southwest 295 339 8,900 -1,680 Descending Jacksonville Center
02:24PM 30.8331 -81.4869 208° Southwest 278 320 6,900 -2,040 Descending Jacksonville Center
02:25PM 30.7728 -81.5242 208° Southwest 266 306 4,900 -1,500 Descending Jacksonville Center
02:26PM 30.7128 -81.5708 214° Southwest 261 300 3,900 -540 Descending Jacksonville Center
02:27PM 30.6611 -81.6294 224° Southwest 261 300 3,900 -720 Level Jacksonville Center
02:28PM 30.5950 -81.7078 226° Southwest 258 297 2,400 -1,080 Descending Jacksonville Center
02:29PM 30.5536 -81.7517 222° Southwest 178 205 1,600 -840 Descending Jacksonville Center
02:30PM 30.5100 -81.7569 186° South 136 157 800 -600 Descending Jacksonville Center
02:31PM 30.4886 -81.7161 121° Southeast 141 162 400 -420 Descending Jacksonville Center